createdAt,value
2023-03-27T00:00:35.737Z,98808.88
2023-03-27T00:03:03.191Z,98810.63
2023-03-27T00:11:24.865Z,98807.50
2023-03-27T00:13:54.484Z,98802.31
2023-03-27T00:22:14.415Z,98800.78
2023-03-27T00:24:41.516Z,98806.88
2023-03-27T00:27:09.245Z,98792.50
2023-03-27T00:32:30.830Z,98798.97
2023-03-27T00:34:58.174Z,98794.44
2023-03-27T00:37:25.325Z,98802.13
2023-03-27T00:51:36.729Z,98783.91
2023-03-27T01:12:40.445Z,98764.25
2023-03-27T01:17:15.718Z,98774.19
2023-03-27T01:33:41.004Z,98772.44
2023-03-27T01:36:27.437Z,98761.88
2023-03-27T01:39:28.323Z,98763.47
2023-03-27T01:42:04.335Z,98770.28
2023-03-27T01:44:48.493Z,98769.63
2023-03-27T01:47:41.058Z,98778.09
2023-03-27T01:50:19.037Z,98772.06
2023-03-27T01:53:01.753Z,98783.75
2023-03-27T01:55:41.234Z,98791.56
2023-03-27T01:58:14.425Z,98786.50
2023-03-27T02:01:03.677Z,98790.78
2023-03-27T02:03:50.311Z,98789.41
2023-03-27T02:06:41.954Z,98797.19
2023-03-27T02:09:33.796Z,98797.56
2023-03-27T02:12:16.598Z,98791.69
2023-03-27T02:14:54.200Z,98790.88
2023-03-27T02:17:26.287Z,98791.00
2023-03-27T02:20:09.925Z,98788.81
2023-03-27T02:22:40.068Z,98780.94
2023-03-27T02:25:28.224Z,98775.53
2023-03-27T02:28:13.142Z,98795.00
2023-03-27T02:30:45.385Z,98793.16
2023-03-27T02:33:53.353Z,98792.25
2023-03-27T02:36:58.080Z,98788.50
2023-03-27T02:39:28.039Z,98794.59
2023-03-27T02:42:13.318Z,98803.78
2023-03-27T02:45:01.591Z,98806.28
2023-03-27T02:47:45.949Z,98800.97
2023-03-27T02:50:41.052Z,98804.44
2023-03-27T02:53:12.137Z,98796.09
2023-03-27T02:55:49.151Z,98799.63
2023-03-27T02:58:30.758Z,98797.22
2023-03-27T03:01:00.427Z,98796.66
2023-03-27T03:03:44.566Z,98793.69
2023-03-27T03:06:11.714Z,98795.41
2023-03-27T03:08:39.335Z,98806.81
2023-03-27T03:11:13.542Z,98808.47
2023-03-27T03:13:41.333Z,98811.78
2023-03-27T03:16:10.188Z,98810.81
2023-03-27T03:18:37.449Z,98805.34
2023-03-27T03:21:05.842Z,98802.69
2023-03-27T03:23:33.105Z,98799.91
2023-03-27T03:26:00.142Z,98792.88
2023-03-27T03:28:27.221Z,98794.66
2023-03-27T03:30:55.114Z,98791.69
2023-03-27T03:33:22.735Z,98784.78
2023-03-27T03:35:50.954Z,98787.25
2023-03-27T03:38:28.105Z,98790.59
2023-03-27T03:40:57.085Z,98786.16
2023-03-27T03:43:27.438Z,98785.13
2023-03-27T03:45:55.458Z,98793.09
2023-03-27T03:48:23.420Z,98800.75
2023-03-27T03:50:50.725Z,98799.00
2023-03-27T03:53:21.246Z,98790.91
2023-03-27T03:55:56.025Z,98799.16
2023-03-27T03:58:34.513Z,98797.81
2023-03-27T04:01:02.959Z,98810.25
2023-03-27T04:03:34.051Z,98812.88
2023-03-27T04:06:02.034Z,98808.56
2023-03-27T04:08:29.159Z,98809.25
2023-03-27T04:10:56.455Z,98821.13
2023-03-27T04:13:24.156Z,98818.72
2023-03-27T04:15:51.454Z,98817.03
2023-03-27T04:18:19.766Z,98821.31
2023-03-27T04:20:50.767Z,98814.34
2023-03-27T04:23:20.693Z,98824.06
2023-03-27T04:25:47.964Z,98823.63
2023-03-27T04:28:18.523Z,98823.31
2023-03-27T04:30:50.473Z,98833.72
2023-03-27T04:33:20.774Z,98836.47
2023-03-27T04:36:06.031Z,98826.84
2023-03-27T04:38:39.278Z,98840.84
2023-03-27T04:41:07.181Z,98836.75
2023-03-27T04:43:36.846Z,98844.19
2023-03-27T04:46:08.661Z,98841.53
2023-03-27T04:48:38.935Z,98846.88
2023-03-27T04:51:07.165Z,98850.09
2023-03-27T04:53:36.419Z,98853.00
2023-03-27T04:56:05.541Z,98861.16
2023-03-27T04:58:36.743Z,98852.09
2023-03-27T05:01:05.623Z,98857.75
2023-03-27T05:03:35.115Z,98850.22
2023-03-27T05:06:04.176Z,98856.13
2023-03-27T05:08:32.716Z,98847.66
2023-03-27T05:10:59.897Z,98854.72
2023-03-27T05:13:28.601Z,98835.94
2023-03-27T05:15:55.778Z,98848.38
2023-03-27T05:18:22.804Z,98844.03
2023-03-27T05:20:50.223Z,98857.41
2023-03-27T05:23:17.411Z,98851.16
2023-03-27T05:26:00.138Z,98861.75
2023-03-27T05:28:29.433Z,98861.41
2023-03-27T05:30:57.652Z,98860.00
2023-03-27T05:33:25.807Z,98858.66
2023-03-27T05:35:53.135Z,98858.09
2023-03-27T05:38:22.673Z,98852.75
2023-03-27T05:40:52.261Z,98862.50
2023-03-27T05:43:19.421Z,98871.56
2023-03-27T05:45:46.494Z,98872.38
2023-03-27T05:48:13.762Z,98873.94
2023-03-27T05:50:42.168Z,98882.63
2023-03-27T05:53:12.444Z,98885.91
2023-03-27T05:55:40.027Z,98884.66
2023-03-27T05:58:09.913Z,98894.59
2023-03-27T06:00:38.701Z,98890.97
2023-03-27T06:03:06.974Z,98899.94
2023-03-27T06:05:34.594Z,98894.41
2023-03-27T06:08:02.271Z,98888.72
2023-03-27T06:10:30.775Z,98894.66
2023-03-27T06:13:12.988Z,98890.44
2023-03-27T06:15:43.089Z,98887.00
2023-03-27T06:18:11.459Z,98904.34
2023-03-27T06:20:39.261Z,98903.19
2023-03-27T06:23:07.756Z,98898.00
2023-03-27T06:25:38.968Z,98898.06
2023-03-27T06:28:09.732Z,98910.13
2023-03-27T06:30:38.485Z,98918.69
2023-03-27T06:33:07.805Z,98919.44
2023-03-27T06:35:35.699Z,98919.44
2023-03-27T06:38:03.446Z,98926.28
2023-03-27T06:40:32.331Z,98929.78
2023-03-27T06:43:06.014Z,98929.09
2023-03-27T06:45:45.414Z,98935.75
2023-03-27T06:48:20.448Z,98945.66
2023-03-27T06:50:51.587Z,98935.19
2023-03-27T06:55:50.978Z,98953.50
2023-03-27T06:58:19.293Z,98956.38
2023-03-27T07:00:48.694Z,98958.91
2023-03-27T07:03:16.189Z,98962.03
2023-03-27T07:05:44.527Z,98961.84
2023-03-27T07:10:50.884Z,98961.28
2023-03-27T07:13:23.711Z,98961.38
2023-03-27T07:15:51.708Z,98959.63
2023-03-27T07:18:18.862Z,98957.56
2023-03-27T07:20:48.143Z,98976.19
2023-03-27T07:23:15.575Z,98974.44
2023-03-27T07:25:42.998Z,98961.47
2023-03-27T07:28:15.071Z,98979.41
2023-03-27T07:30:42.588Z,98977.50
2023-03-27T07:33:10.566Z,98984.84
2023-03-27T07:35:46.247Z,98991.03
2023-03-27T07:38:14.414Z,98980.38
2023-03-27T07:40:46.171Z,98985.66
2023-03-27T07:43:14.335Z,98988.75
2023-03-27T07:45:42.292Z,98994.03
2023-03-27T07:48:16.339Z,98995.59
2023-03-27T07:50:43.927Z,98999.16
2023-03-27T07:53:33.001Z,99007.78
2023-03-27T07:56:01.226Z,99011.78
2023-03-27T07:58:28.527Z,99011.28
2023-03-27T08:01:02.675Z,99016.34
2023-03-27T08:03:31.483Z,99007.16
2023-03-27T08:06:00.926Z,99011.38
2023-03-27T08:08:28.600Z,99008.84
2023-03-27T08:10:57.606Z,99020.28
2023-03-27T08:13:25.326Z,99023.09
2023-03-27T08:15:52.899Z,99028.09
2023-03-27T08:18:20.038Z,99031.16
2023-03-27T08:20:48.449Z,99032.59
2023-03-27T08:23:15.501Z,99039.94
2023-03-27T08:25:42.920Z,99040.94
2023-03-27T08:28:10.008Z,99036.56
2023-03-27T08:30:37.125Z,99046.91
2023-03-27T08:33:04.311Z,99052.31
2023-03-27T08:35:31.720Z,99056.47
2023-03-27T08:37:58.801Z,99059.63
2023-03-27T08:40:29.694Z,99055.81
2023-03-27T08:46:00.246Z,99059.06
2023-03-27T08:48:53.654Z,99063.13
2023-03-27T08:51:37.318Z,99063.88
2023-03-27T08:54:20.099Z,99064.91
2023-03-27T08:56:48.276Z,99071.47
2023-03-27T08:59:26.322Z,99076.44
2023-03-27T09:02:19.546Z,99079.63
2023-03-27T09:05:04.885Z,99075.47
2023-03-27T09:08:23.946Z,99085.78
2023-03-27T09:11:09.740Z,99084.00
2023-03-27T09:13:49.022Z,99089.56
2023-03-27T09:16:31.192Z,99086.22
2023-03-27T09:19:29.419Z,99097.59
2023-03-27T09:22:13.862Z,99092.53
2023-03-27T09:24:45.945Z,99105.03
2023-03-27T09:27:34.851Z,99098.84
2023-03-27T09:30:30.094Z,99109.97
2023-03-27T09:33:03.686Z,99116.88
2023-03-27T09:35:30.965Z,99104.34
2023-03-27T09:38:06.902Z,99133.97
2023-03-27T09:40:54.154Z,99130.75
2023-03-27T09:43:30.177Z,99128.31
2023-03-27T09:45:59.162Z,99134.59
2023-03-27T09:48:45.096Z,99121.91
2023-03-27T09:51:58.310Z,99129.34
2023-03-27T09:54:31.798Z,99134.31
2023-03-27T09:57:07.377Z,99134.41
2023-03-27T09:59:39.049Z,99128.22
2023-03-27T10:02:23.039Z,99135.19
2023-03-27T10:05:03.901Z,99152.31
2023-03-27T10:07:31.140Z,99148.53
2023-03-27T10:10:11.896Z,99143.41
2023-03-27T10:12:40.279Z,99152.38
2023-03-27T10:15:28.448Z,99156.19
2023-03-27T10:17:56.699Z,99157.47
2023-03-27T10:20:24.242Z,99150.63
2023-03-27T10:22:56.259Z,99157.31
2023-03-27T10:25:32.422Z,99147.72
2023-03-27T10:28:18.926Z,99155.91
2023-03-27T10:30:47.107Z,99157.03
2023-03-27T10:33:28.779Z,99148.03
2023-03-27T10:35:57.262Z,99162.97
2023-03-27T10:38:25.337Z,99159.84
2023-03-27T10:40:52.682Z,99158.59
2023-03-27T10:43:32.678Z,99165.22
2023-03-27T10:46:08.429Z,99162.63
2023-03-27T10:49:10.264Z,99155.50
2023-03-27T10:51:46.969Z,99163.69
2023-03-27T10:54:45.871Z,99152.69
2023-03-27T10:57:34.277Z,99160.84
2023-03-27T11:00:24.643Z,99150.44
2023-03-27T11:03:30.177Z,99166.44
2023-03-27T11:06:01.499Z,99159.84
2023-03-27T11:08:54.493Z,99173.56
2023-03-27T11:11:28.266Z,99168.38
2023-03-27T11:14:02.419Z,99167.34
2023-03-27T11:16:53.887Z,99185.44
2023-03-27T11:19:54.690Z,99168.00
2023-03-27T11:22:34.731Z,99181.75
2023-03-27T11:25:25.126Z,99168.63
2023-03-27T11:28:03.633Z,99173.41
2023-03-27T11:31:13.563Z,99177.25
2023-03-27T11:33:52.630Z,99177.53
2023-03-27T11:36:45.912Z,99173.47
2023-03-27T11:39:32.131Z,99183.22
2023-03-27T11:42:05.273Z,99183.00
2023-03-27T11:44:33.454Z,99178.19
2023-03-27T11:47:25.001Z,99169.69
2023-03-27T11:50:23.126Z,99173.56
2023-03-27T11:53:36.847Z,99162.25
2023-03-27T11:56:29.180Z,99161.78
2023-03-27T11:59:14.394Z,99168.41
2023-03-27T12:02:24.943Z,99172.41
2023-03-27T12:05:33.926Z,99166.28
2023-03-27T12:08:34.419Z,99161.38
2023-03-27T12:11:03.642Z,99170.88
2023-03-27T12:14:02.373Z,99165.19
2023-03-27T12:16:45.803Z,99168.09
2023-03-27T12:19:46.338Z,99162.88
2023-03-27T12:22:53.761Z,99167.41
2023-03-27T12:26:08.970Z,99160.75
2023-03-27T12:28:58.469Z,99166.19
2023-03-27T12:31:46.874Z,99172.75
2023-03-27T12:35:06.469Z,99166.22
2023-03-27T12:38:02.085Z,99169.97
2023-03-27T12:41:09.274Z,99165.84
2023-03-27T12:43:43.827Z,99179.34
2023-03-27T12:46:36.834Z,99172.31
2023-03-27T12:49:27.385Z,99169.59
2023-03-27T12:52:04.973Z,99178.88
2023-03-27T12:54:39.112Z,99174.28
2023-03-27T12:57:22.549Z,99192.22
2023-03-27T12:59:59.863Z,99183.56
2023-03-27T13:02:55.204Z,99197.59
2023-03-27T13:06:06.535Z,99186.75
2023-03-27T13:09:17.036Z,99198.69
2023-03-27T13:12:32.369Z,99204.69
2023-03-27T13:15:30.236Z,99204.25
2023-03-27T13:18:28.818Z,99209.41
2023-03-27T13:21:19.002Z,99225.78
2023-03-27T13:23:58.913Z,99215.06
2023-03-27T13:26:55.046Z,99215.91
2023-03-27T13:29:27.171Z,99225.22
2023-03-27T13:32:22.945Z,99224.50
2023-03-27T13:35:19.416Z,99231.81
2023-03-27T13:37:58.224Z,99231.03
2023-03-27T13:40:31.153Z,99229.69
2023-03-27T13:43:28.491Z,99237.25
2023-03-27T13:46:00.237Z,99247.66
2023-03-27T13:49:08.897Z,99250.22
2023-03-27T13:51:52.584Z,99268.22
2023-03-27T13:55:01.376Z,99276.94
2023-03-27T13:57:49.054Z,99282.31
2023-03-27T14:00:27.684Z,99279.34
2023-03-27T14:03:26.707Z,99300.28
2023-03-27T14:06:08.974Z,99294.19
2023-03-27T14:08:55.449Z,99296.94
2023-03-27T14:11:48.632Z,99307.75
2023-03-27T14:15:02.232Z,99310.25
2023-03-27T14:18:30.266Z,99324.13
2023-03-27T14:21:00.894Z,99343.75
2023-03-27T14:23:47.203Z,99346.34
2023-03-27T14:26:21.517Z,99350.63
2023-03-27T14:28:59.037Z,99350.28
2023-03-27T14:31:28.924Z,99360.69
2023-03-27T14:34:24.726Z,99361.69
2023-03-27T14:36:52.460Z,99354.00
2023-03-27T14:39:20.689Z,99361.00
2023-03-27T14:42:00.529Z,99366.06
2023-03-27T14:44:32.088Z,99372.69
2023-03-27T14:47:13.047Z,99371.00
2023-03-27T14:49:50.896Z,99383.28
2023-03-27T14:52:33.373Z,99388.38
2023-03-27T14:55:01.580Z,99388.81
2023-03-27T14:57:29.322Z,99392.44
2023-03-27T14:59:57.430Z,99396.72
2023-03-27T15:02:30.448Z,99391.72
2023-03-27T15:05:09.866Z,99413.13
2023-03-27T15:07:37.810Z,99411.06
2023-03-27T15:10:07.590Z,99427.09
2023-03-27T15:12:34.997Z,99436.97
2023-03-27T15:15:02.369Z,99441.19
2023-03-27T15:17:34.658Z,99424.47
2023-03-27T15:20:14.458Z,99437.91
2023-03-27T15:22:51.181Z,99446.63
2023-03-27T15:25:34.961Z,99450.84
2023-03-27T15:28:10.368Z,99473.38
2023-03-27T15:30:51.464Z,99472.25
2023-03-27T15:33:34.665Z,99470.84
2023-03-27T15:36:09.904Z,99468.44
2023-03-27T15:38:38.127Z,99474.16
2023-03-27T15:41:17.248Z,99484.66
2023-03-27T15:43:44.629Z,99477.53
2023-03-27T15:46:19.968Z,99478.66
2023-03-27T15:48:51.381Z,99484.53
2023-03-27T15:51:21.286Z,99486.88
2023-03-27T15:53:56.508Z,99491.91
2023-03-27T15:56:41.420Z,99494.00
2023-03-27T15:59:15.032Z,99504.69
2023-03-27T16:02:13.199Z,99510.53
2023-03-27T16:04:57.874Z,99512.00
2023-03-27T16:07:32.638Z,99507.66
2023-03-27T16:10:05.317Z,99520.75
2023-03-27T16:12:56.503Z,99520.00
2023-03-27T16:15:38.452Z,99517.56
2023-03-27T16:18:24.675Z,99521.75
2023-03-27T16:20:51.926Z,99527.78
2023-03-27T16:23:18.973Z,99523.00
2023-03-27T16:25:46.225Z,99531.75
2023-03-27T16:28:14.410Z,99540.06
2023-03-27T16:30:42.252Z,99540.22
2023-03-27T16:33:21.578Z,99556.38
2023-03-27T16:35:50.410Z,99552.06
2023-03-27T16:38:18.269Z,99562.22
2023-03-27T16:40:45.627Z,99579.28
2023-03-27T16:43:12.699Z,99579.22
2023-03-27T16:45:39.901Z,99577.44
2023-03-27T16:48:08.365Z,99591.59
2023-03-27T16:50:35.732Z,99600.34
2023-03-27T16:53:02.800Z,99598.22
2023-03-27T16:55:29.863Z,99597.13
2023-03-27T16:57:56.956Z,99607.94
2023-03-27T17:00:24.491Z,99618.59
2023-03-27T17:02:51.518Z,99613.44
2023-03-27T17:05:18.739Z,99614.94
2023-03-27T17:07:46.988Z,99617.56
2023-03-27T17:10:14.658Z,99631.28
2023-03-27T17:12:41.761Z,99623.28
2023-03-27T17:15:09.631Z,99616.75
2023-03-27T17:17:36.706Z,99638.84
2023-03-27T17:20:06.302Z,99652.72
2023-03-27T17:22:33.953Z,99649.44
2023-03-27T17:25:02.461Z,99662.59
2023-03-27T17:27:29.892Z,99660.06
2023-03-27T17:29:57.633Z,99663.28
2023-03-27T17:32:26.974Z,99661.34
2023-03-27T17:34:54.318Z,99665.00
2023-03-27T17:37:22.276Z,99667.06
2023-03-27T17:39:49.680Z,99675.38
2023-03-27T17:42:16.887Z,99679.25
2023-03-27T17:44:45.161Z,99687.53
2023-03-27T17:47:13.145Z,99673.78
2023-03-27T17:49:41.113Z,99690.44
2023-03-27T17:52:11.254Z,99692.69
2023-03-27T17:54:38.983Z,99691.88
2023-03-27T17:57:06.549Z,99695.66
2023-03-27T17:59:34.160Z,99701.72
2023-03-27T18:02:01.414Z,99712.56
2023-03-27T18:04:29.299Z,99705.00
2023-03-27T18:06:56.611Z,99724.78
2023-03-27T18:09:23.594Z,99723.69
2023-03-27T18:11:50.842Z,99725.66
2023-03-27T18:14:17.977Z,99749.25
2023-03-27T18:16:45.154Z,99734.06
2023-03-27T18:19:13.413Z,99734.06
2023-03-27T18:21:40.461Z,99745.91
2023-03-27T18:24:08.101Z,99758.06
2023-03-27T18:26:35.175Z,99763.94
2023-03-27T18:29:02.654Z,99758.97
2023-03-27T18:31:29.725Z,99761.97
2023-03-27T18:33:56.813Z,99766.78
2023-03-27T18:36:24.064Z,99760.09
2023-03-27T18:38:52.032Z,99768.66
2023-03-27T18:41:19.170Z,99774.88
2023-03-27T18:43:46.178Z,99776.25
2023-03-27T18:46:17.334Z,99776.31
2023-03-27T18:48:48.627Z,99779.75
2023-03-27T18:51:18.598Z,99788.56
2023-03-27T18:53:46.222Z,99782.69
2023-03-27T18:56:13.668Z,99779.41
2023-03-27T18:58:40.916Z,99787.91
2023-03-27T19:01:10.910Z,99783.91
2023-03-27T19:03:39.216Z,99770.38
2023-03-27T19:06:09.517Z,99785.88
2023-03-27T19:08:38.049Z,99793.34
2023-03-27T19:11:09.910Z,99806.50
2023-03-27T19:13:37.033Z,99798.00
2023-03-27T19:16:14.224Z,99804.75
2023-03-27T19:18:42.574Z,99787.13
2023-03-27T19:21:09.673Z,99799.03
2023-03-27T19:23:36.746Z,99803.50
2023-03-27T19:26:10.372Z,99800.97
2023-03-27T19:28:37.466Z,99799.84
2023-03-27T19:31:09.977Z,99805.81
2023-03-27T19:33:37.578Z,99808.66
2023-03-27T19:36:05.155Z,99811.09
2023-03-27T19:38:32.279Z,99818.50
2023-03-27T19:40:59.604Z,99810.72
2023-03-27T19:43:26.947Z,99816.94
2023-03-27T19:46:14.341Z,99817.31
2023-03-27T19:48:44.520Z,99822.53
2023-03-27T19:51:11.604Z,99816.69
2023-03-27T19:53:38.757Z,99816.16
2023-03-27T19:56:06.516Z,99825.72
2023-03-27T19:58:33.713Z,99831.88
2023-03-27T20:01:00.960Z,99831.81
2023-03-27T20:03:29.561Z,99829.19
2023-03-27T20:06:06.796Z,99832.72
2023-03-27T20:08:38.311Z,99835.13
2023-03-27T20:11:07.159Z,99834.31
2023-03-27T20:13:42.323Z,99834.06
2023-03-27T20:16:16.575Z,99836.66
2023-03-27T20:18:44.007Z,99847.25
2023-03-27T20:21:13.827Z,99850.31
2023-03-27T20:23:43.251Z,99854.91
2023-03-27T20:26:10.433Z,99848.34
2023-03-27T20:28:37.473Z,99852.16
2023-03-27T20:31:06.278Z,99856.31
2023-03-27T20:33:33.450Z,99853.88
2023-03-27T20:36:00.783Z,99851.81
2023-03-27T20:38:31.496Z,99857.47
2023-03-27T20:41:03.897Z,99846.59
2023-03-27T20:43:35.014Z,99850.53
2023-03-27T20:46:04.676Z,99857.41
2023-03-27T20:48:41.765Z,99852.34
2023-03-27T20:51:14.831Z,99850.75
2023-03-27T20:53:54.049Z,99856.25
2023-03-27T20:56:22.565Z,99859.94
2023-03-27T20:58:49.756Z,99860.59
2023-03-27T21:01:19.266Z,99859.44
2023-03-27T21:03:49.569Z,99860.22
2023-03-27T21:06:20.057Z,99858.84
2023-03-27T21:08:47.958Z,99857.72
2023-03-27T21:11:15.215Z,99859.78
2023-03-27T21:13:42.324Z,99859.78
2023-03-27T21:16:10.076Z,99862.66
2023-03-27T21:18:37.133Z,99856.75
2023-03-27T21:21:04.912Z,99852.91
2023-03-27T21:23:32.009Z,99851.38
2023-03-27T21:25:59.112Z,99861.44
2023-03-27T21:28:26.450Z,99863.03
2023-03-27T21:30:53.458Z,99849.22
2023-03-27T21:33:20.548Z,99851.94
2023-03-27T21:35:48.740Z,99859.72
2023-03-27T21:38:17.789Z,99862.88
2023-03-27T21:40:47.272Z,99844.09
2023-03-27T21:43:14.936Z,99858.28
2023-03-27T21:45:42.099Z,99861.56
2023-03-27T21:48:10.627Z,99862.50
2023-03-27T21:50:37.852Z,99863.41
2023-03-27T21:53:05.340Z,99860.41
2023-03-27T21:55:32.480Z,99850.50
2023-03-27T21:57:59.483Z,99840.72
2023-03-27T22:00:27.205Z,99847.09
2023-03-27T22:02:54.278Z,99841.34
2023-03-27T22:05:21.475Z,99845.19
2023-03-27T22:07:48.788Z,99850.81
2023-03-27T22:10:16.592Z,99842.19
2023-03-27T22:12:43.593Z,99842.72
2023-03-27T22:15:11.262Z,99841.63
2023-03-27T22:17:38.567Z,99840.31
2023-03-27T22:20:07.149Z,99843.00
2023-03-27T22:22:35.558Z,99847.50
2023-03-27T22:25:03.722Z,99847.13
2023-03-27T22:27:31.064Z,99857.78
2023-03-27T22:29:58.232Z,99856.41
2023-03-27T22:32:25.640Z,99852.59
2023-03-27T22:34:52.748Z,99844.31
2023-03-27T22:37:20.865Z,99845.31
2023-03-27T22:39:48.022Z,99839.63
2023-03-27T22:42:15.141Z,99844.50
2023-03-27T22:44:42.302Z,99849.69
2023-03-27T22:47:09.615Z,99838.19
2023-03-27T22:49:36.934Z,99836.94
2023-03-27T22:52:05.276Z,99845.38
2023-03-27T22:54:32.316Z,99835.22
2023-03-27T22:56:59.451Z,99842.28
2023-03-27T22:59:26.633Z,99842.00
2023-03-27T23:01:53.740Z,99840.09
2023-03-27T23:04:20.969Z,99846.88
2023-03-27T23:06:48.707Z,99843.56
2023-03-27T23:09:16.817Z,99857.28
2023-03-27T23:11:43.922Z,99867.72
2023-03-27T23:14:11.474Z,99866.41
2023-03-27T23:16:38.603Z,99864.34
2023-03-27T23:19:06.078Z,99865.38
2023-03-27T23:21:33.154Z,99861.66
2023-03-27T23:24:00.286Z,99873.88
2023-03-27T23:26:27.624Z,99880.53
2023-03-27T23:28:54.644Z,99875.03
2023-03-27T23:31:21.849Z,99870.88
2023-03-27T23:33:51.226Z,99875.41
2023-03-27T23:36:23.219Z,99884.31
2023-03-27T23:38:51.626Z,99884.38
2023-03-27T23:41:20.050Z,99884.31
2023-03-27T23:43:48.084Z,99882.59
2023-03-27T23:46:15.565Z,99877.09
2023-03-27T23:48:43.885Z,99884.78
2023-03-27T23:51:13.513Z,99886.50
2023-03-27T23:53:40.901Z,99889.91
2023-03-27T23:56:08.838Z,99890.75
2023-03-27T23:58:37.282Z,99888.72
